sensor_id;sensor_type;location;lat;lon;timestamp;P1;durP1;ratioP1;P2;durP2;ratioP2
53263;SDS011;39153;52.680;6.172;2022-10-16T00:01:24;7.28;;;2.30;;
53263;SDS011;39153;52.680;6.172;2022-10-16T00:03:55;8.13;;;2.30;;
53263;SDS011;39153;52.680;6.172;2022-10-16T00:06:23;10.45;;;2.45;;
53263;SDS011;39153;52.680;6.172;2022-10-16T00:08:50;6.00;;;2.33;;
53263;SDS011;39153;52.680;6.172;2022-10-16T00:11:21;6.32;;;2.03;;
53263;SDS011;39153;52.680;6.172;2022-10-16T00:13:49;9.73;;;2.58;;
53263;SDS011;39153;52.680;6.172;2022-10-16T00:16:17;7.68;;;2.17;;
53263;SDS011;39153;52.680;6.172;2022-10-16T00:18:43;5.22;;;1.88;;
53263;SDS011;39153;52.680;6.172;2022-10-16T00:21:17;5.03;;;2.10;;
53263;SDS011;39153;52.680;6.172;2022-10-16T00:23:45;6.78;;;2.08;;
53263;SDS011;39153;52.680;6.172;2022-10-16T00:26:12;5.15;;;1.70;;
53263;SDS011;39153;52.680;6.172;2022-10-16T00:28:39;6.38;;;1.98;;
53263;SDS011;39153;52.680;6.172;2022-10-16T00:31:06;7.35;;;1.90;;
53263;SDS011;39153;52.680;6.172;2022-10-16T00:33:35;7.63;;;1.70;;
53263;SDS011;39153;52.680;6.172;2022-10-16T00:36:02;5.75;;;2.08;;
53263;SDS011;39153;52.680;6.172;2022-10-16T00:38:29;6.00;;;1.85;;
53263;SDS011;39153;52.680;6.172;2022-10-16T00:40:55;6.60;;;1.88;;
53263;SDS011;39153;52.680;6.172;2022-10-16T00:46:20;6.10;;;2.08;;
53263;SDS011;39153;52.680;6.172;2022-10-16T00:49:03;7.72;;;1.90;;
53263;SDS011;39153;52.680;6.172;2022-10-16T00:51:45;6.35;;;2.17;;
53263;SDS011;39153;52.680;6.172;2022-10-16T00:56:55;5.97;;;2.00;;
53263;SDS011;39153;52.680;6.172;2022-10-16T00:59:27;9.63;;;2.25;;
53263;SDS011;39153;52.680;6.172;2022-10-16T01:01:54;6.50;;;2.40;;
53263;SDS011;39153;52.680;6.172;2022-10-16T01:04:21;6.82;;;2.15;;
53263;SDS011;39153;52.680;6.172;2022-10-16T01:06:56;5.30;;;2.10;;
53263;SDS011;39153;52.680;6.172;2022-10-16T01:15:01;5.07;;;1.60;;
53263;SDS011;39153;52.680;6.172;2022-10-16T01:17:57;4.80;;;2.08;;
53263;SDS011;39153;52.680;6.172;2022-10-16T01:20:42;8.55;;;2.00;;
53263;SDS011;39153;52.680;6.172;2022-10-16T01:28:53;6.13;;;1.83;;
53263;SDS011;39153;52.680;6.172;2022-10-16T01:31:24;5.90;;;2.15;;
53263;SDS011;39153;52.680;6.172;2022-10-16T01:33:56;5.95;;;1.98;;
53263;SDS011;39153;52.680;6.172;2022-10-16T01:36:45;6.47;;;2.35;;
53263;SDS011;39153;52.680;6.172;2022-10-16T01:39:24;5.28;;;2.03;;
53263;SDS011;39153;52.680;6.172;2022-10-16T01:41:58;6.65;;;2.15;;
53263;SDS011;39153;52.680;6.172;2022-10-16T01:44:29;5.07;;;1.52;;
53263;SDS011;39153;52.680;6.172;2022-10-16T01:46:58;5.32;;;2.08;;
53263;SDS011;39153;52.680;6.172;2022-10-16T01:49:25;4.93;;;2.00;;
53263;SDS011;39153;52.680;6.172;2022-10-16T01:51:55;5.55;;;2.00;;
53263;SDS011;39153;52.680;6.172;2022-10-16T01:54:25;6.25;;;2.00;;
53263;SDS011;39153;52.680;6.172;2022-10-16T01:56:54;7.38;;;2.30;;
53263;SDS011;39153;52.680;6.172;2022-10-16T01:59:21;6.22;;;2.20;;
53263;SDS011;39153;52.680;6.172;2022-10-16T02:01:55;6.63;;;2.30;;
53263;SDS011;39153;52.680;6.172;2022-10-16T02:04:26;7.25;;;2.55;;
53263;SDS011;39153;52.680;6.172;2022-10-16T02:06:55;7.43;;;2.28;;
53263;SDS011;39153;52.680;6.172;2022-10-16T02:09:21;5.25;;;2.55;;
53263;SDS011;39153;52.680;6.172;2022-10-16T02:11:47;5.35;;;2.30;;
53263;SDS011;39153;52.680;6.172;2022-10-16T02:14:14;6.57;;;2.40;;
53263;SDS011;39153;52.680;6.172;2022-10-16T02:16:41;9.05;;;2.15;;
53263;SDS011;39153;52.680;6.172;2022-10-16T02:19:08;5.25;;;2.28;;
53263;SDS011;39153;52.680;6.172;2022-10-16T02:21:45;7.28;;;2.35;;
53263;SDS011;39153;52.680;6.172;2022-10-16T02:28:01;5.23;;;2.30;;
53263;SDS011;39153;52.680;6.172;2022-10-16T02:30:09;4.47;;;2.30;;
53263;SDS011;39153;52.680;6.172;2022-10-16T02:32:39;7.40;;;2.45;;
53263;SDS011;39153;52.680;6.172;2022-10-16T02:35:07;6.22;;;1.90;;
53263;SDS011;39153;52.680;6.172;2022-10-16T02:37:34;4.85;;;1.98;;
53263;SDS011;39153;52.680;6.172;2022-10-16T02:40:00;6.68;;;2.00;;
53263;SDS011;39153;52.680;6.172;2022-10-16T02:42:28;4.95;;;2.08;;
53263;SDS011;39153;52.680;6.172;2022-10-16T02:44:57;4.90;;;2.00;;
53263;SDS011;39153;52.680;6.172;2022-10-16T02:47:23;6.10;;;1.60;;
53263;SDS011;39153;52.680;6.172;2022-10-16T02:49:49;6.03;;;1.90;;
53263;SDS011;39153;52.680;6.172;2022-10-16T02:52:14;7.18;;;2.00;;
53263;SDS011;39153;52.680;6.172;2022-10-16T02:54:40;6.18;;;1.98;;
53263;SDS011;39153;52.680;6.172;2022-10-16T02:57:05;5.53;;;1.73;;
53263;SDS011;39153;52.680;6.172;2022-10-16T02:59:31;4.95;;;1.50;;
53263;SDS011;39153;52.680;6.172;2022-10-16T03:01:57;6.72;;;1.90;;
53263;SDS011;39153;52.680;6.172;2022-10-16T03:04:22;4.95;;;1.48;;
53263;SDS011;39153;52.680;6.172;2022-10-16T03:06:48;5.50;;;1.60;;
53263;SDS011;39153;52.680;6.172;2022-10-16T03:09:14;5.57;;;1.80;;
53263;SDS011;39153;52.680;6.172;2022-10-16T03:11:39;3.95;;;1.55;;
53263;SDS011;39153;52.680;6.172;2022-10-16T03:14:05;5.90;;;1.92;;
53263;SDS011;39153;52.680;6.172;2022-10-16T03:16:31;3.92;;;1.67;;
53263;SDS011;39153;52.680;6.172;2022-10-16T03:18:56;5.18;;;1.55;;
53263;SDS011;39153;52.680;6.172;2022-10-16T03:21:22;3.83;;;1.60;;
53263;SDS011;39153;52.680;6.172;2022-10-16T03:23:48;8.15;;;2.10;;
53263;SDS011;39153;52.680;6.172;2022-10-16T03:26:13;5.55;;;2.05;;
53263;SDS011;39153;52.680;6.172;2022-10-16T03:28:39;4.13;;;2.00;;
53263;SDS011;39153;52.680;6.172;2022-10-16T03:31:05;5.65;;;1.90;;
53263;SDS011;39153;52.680;6.172;2022-10-16T03:33:30;6.60;;;2.00;;
53263;SDS011;39153;52.680;6.172;2022-10-16T03:35:57;5.15;;;1.98;;
53263;SDS011;39153;52.680;6.172;2022-10-16T03:38:22;4.72;;;2.00;;
53263;SDS011;39153;52.680;6.172;2022-10-16T03:40:48;6.28;;;2.10;;
53263;SDS011;39153;52.680;6.172;2022-10-16T03:43:14;4.95;;;2.13;;
53263;SDS011;39153;52.680;6.172;2022-10-16T03:45:40;4.55;;;2.00;;
53263;SDS011;39153;52.680;6.172;2022-10-16T03:48:05;7.22;;;2.13;;
53263;SDS011;39153;52.680;6.172;2022-10-16T03:50:31;6.47;;;2.10;;
53263;SDS011;39153;52.680;6.172;2022-10-16T03:52:57;6.97;;;2.30;;
53263;SDS011;39153;52.680;6.172;2022-10-16T03:55:22;3.20;;;1.85;;
53263;SDS011;39153;52.680;6.172;2022-10-16T03:57:48;7.90;;;2.17;;
53263;SDS011;39153;52.680;6.172;2022-10-16T04:00:14;5.15;;;2.53;;
53263;SDS011;39153;52.680;6.172;2022-10-16T04:02:39;9.05;;;2.65;;
53263;SDS011;39153;52.680;6.172;2022-10-16T04:05:06;6.50;;;2.38;;
53263;SDS011;39153;52.680;6.172;2022-10-16T04:07:32;5.60;;;2.80;;
53263;SDS011;39153;52.680;6.172;2022-10-16T04:09:57;4.30;;;2.10;;
53263;SDS011;39153;52.680;6.172;2022-10-16T04:12:24;6.63;;;2.70;;
53263;SDS011;39153;52.680;6.172;2022-10-16T04:14:50;6.10;;;2.50;;
53263;SDS011;39153;52.680;6.172;2022-10-16T04:17:16;5.38;;;2.67;;
53263;SDS011;39153;52.680;6.172;2022-10-16T04:19:42;7.40;;;2.70;;
53263;SDS011;39153;52.680;6.172;2022-10-16T04:22:07;4.55;;;2.55;;
53263;SDS011;39153;52.680;6.172;2022-10-16T04:24:33;5.22;;;2.80;;
53263;SDS011;39153;52.680;6.172;2022-10-16T04:26:59;4.43;;;2.80;;
53263;SDS011;39153;52.680;6.172;2022-10-16T04:29:24;6.47;;;2.50;;
53263;SDS011;39153;52.680;6.172;2022-10-16T04:31:50;5.28;;;2.70;;
53263;SDS011;39153;52.680;6.172;2022-10-16T04:34:16;6.72;;;2.85;;
53263;SDS011;39153;52.680;6.172;2022-10-16T04:36:41;5.15;;;2.50;;
53263;SDS011;39153;52.680;6.172;2022-10-16T04:39:07;6.50;;;3.13;;
53263;SDS011;39153;52.680;6.172;2022-10-16T04:41:33;6.13;;;2.80;;
53263;SDS011;39153;52.680;6.172;2022-10-16T04:43:58;5.75;;;2.70;;
53263;SDS011;39153;52.680;6.172;2022-10-16T04:46:24;7.20;;;3.00;;
53263;SDS011;39153;52.680;6.172;2022-10-16T04:48:50;7.20;;;3.17;;
53263;SDS011;39153;52.680;6.172;2022-10-16T04:51:15;5.38;;;3.03;;
53263;SDS011;39153;52.680;6.172;2022-10-16T04:53:41;6.70;;;2.85;;
53263;SDS011;39153;52.680;6.172;2022-10-16T04:56:07;6.05;;;3.00;;
53263;SDS011;39153;52.680;6.172;2022-10-16T04:58:32;5.30;;;3.08;;
53263;SDS011;39153;52.680;6.172;2022-10-16T05:00:58;7.57;;;3.30;;
53263;SDS011;39153;52.680;6.172;2022-10-16T05:03:24;7.65;;;3.17;;
53263;SDS011;39153;52.680;6.172;2022-10-16T05:05:49;7.20;;;3.38;;
53263;SDS011;39153;52.680;6.172;2022-10-16T05:08:15;7.45;;;3.38;;
53263;SDS011;39153;52.680;6.172;2022-10-16T05:10:42;8.55;;;3.10;;
53263;SDS011;39153;52.680;6.172;2022-10-16T05:13:09;5.65;;;3.40;;
53263;SDS011;39153;52.680;6.172;2022-10-16T05:15:35;7.00;;;3.58;;
53263;SDS011;39153;52.680;6.172;2022-10-16T05:18:01;7.60;;;2.97;;
53263;SDS011;39153;52.680;6.172;2022-10-16T05:20:26;6.47;;;3.10;;
53263;SDS011;39153;52.680;6.172;2022-10-16T05:22:52;5.57;;;2.92;;
53263;SDS011;39153;52.680;6.172;2022-10-16T05:25:18;6.18;;;2.85;;
53263;SDS011;39153;52.680;6.172;2022-10-16T05:27:46;7.60;;;3.17;;
53263;SDS011;39153;52.680;6.172;2022-10-16T05:30:13;7.57;;;2.90;;
53263;SDS011;39153;52.680;6.172;2022-10-16T05:32:39;6.50;;;3.47;;
53263;SDS011;39153;52.680;6.172;2022-10-16T05:35:05;5.25;;;2.90;;
53263;SDS011;39153;52.680;6.172;2022-10-16T05:37:31;5.25;;;2.97;;
53263;SDS011;39153;52.680;6.172;2022-10-16T05:39:56;5.70;;;2.92;;
53263;SDS011;39153;52.680;6.172;2022-10-16T05:42:22;5.95;;;2.70;;
53263;SDS011;39153;52.680;6.172;2022-10-16T05:44:48;8.13;;;2.58;;
53263;SDS011;39153;52.680;6.172;2022-10-16T05:47:13;6.28;;;3.05;;
53263;SDS011;39153;52.680;6.172;2022-10-16T05:49:39;6.32;;;2.75;;
53263;SDS011;39153;52.680;6.172;2022-10-16T05:52:05;14.75;;;3.40;;
53263;SDS011;39153;52.680;6.172;2022-10-16T05:54:30;5.75;;;2.63;;
53263;SDS011;39153;52.680;6.172;2022-10-16T05:56:56;4.80;;;2.70;;
53263;SDS011;39153;52.680;6.172;2022-10-16T05:59:22;7.50;;;3.13;;
53263;SDS011;39153;52.680;6.172;2022-10-16T06:01:48;8.48;;;3.40;;
53263;SDS011;39153;52.680;6.172;2022-10-16T06:04:14;6.00;;;2.92;;
53263;SDS011;39153;52.680;6.172;2022-10-16T06:06:40;5.97;;;2.53;;
53263;SDS011;39153;52.680;6.172;2022-10-16T06:09:05;6.63;;;2.70;;
53263;SDS011;39153;52.680;6.172;2022-10-16T06:11:32;5.05;;;2.33;;
53263;SDS011;39153;52.680;6.172;2022-10-16T06:13:59;6.15;;;2.92;;
53263;SDS011;39153;52.680;6.172;2022-10-16T06:16:27;6.47;;;2.88;;
53263;SDS011;39153;52.680;6.172;2022-10-16T06:18:54;7.70;;;2.40;;
53263;SDS011;39153;52.680;6.172;2022-10-16T06:21:21;6.63;;;2.65;;
53263;SDS011;39153;52.680;6.172;2022-10-16T06:23:52;5.47;;;2.60;;
53263;SDS011;39153;52.680;6.172;2022-10-16T06:26:19;5.95;;;3.08;;
53263;SDS011;39153;52.680;6.172;2022-10-16T06:28:46;5.97;;;2.58;;
53263;SDS011;39153;52.680;6.172;2022-10-16T06:31:12;6.18;;;2.70;;
53263;SDS011;39153;52.680;6.172;2022-10-16T06:33:38;5.68;;;2.97;;
53263;SDS011;39153;52.680;6.172;2022-10-16T06:36:09;4.45;;;2.30;;
53263;SDS011;39153;52.680;6.172;2022-10-16T06:38:36;8.10;;;2.70;;
53263;SDS011;39153;52.680;6.172;2022-10-16T06:41:03;5.72;;;2.67;;
53263;SDS011;39153;52.680;6.172;2022-10-16T06:43:30;7.55;;;2.83;;
53263;SDS011;39153;52.680;6.172;2022-10-16T06:46:03;4.68;;;2.45;;
53263;SDS011;39153;52.680;6.172;2022-10-16T06:48:30;6.93;;;2.60;;
53263;SDS011;39153;52.680;6.172;2022-10-16T06:51:00;6.35;;;2.40;;
53263;SDS011;39153;52.680;6.172;2022-10-16T06:53:31;5.35;;;2.40;;
53263;SDS011;39153;52.680;6.172;2022-10-16T06:55:58;5.53;;;2.35;;
53263;SDS011;39153;52.680;6.172;2022-10-16T06:58:39;7.63;;;2.50;;
53263;SDS011;39153;52.680;6.172;2022-10-16T07:01:05;6.20;;;2.25;;
53263;SDS011;39153;52.680;6.172;2022-10-16T07:03:31;6.35;;;2.20;;
53263;SDS011;39153;52.680;6.172;2022-10-16T07:06:01;5.82;;;2.60;;
53263;SDS011;39153;52.680;6.172;2022-10-16T07:08:30;4.85;;;2.10;;
53263;SDS011;39153;52.680;6.172;2022-10-16T07:10:58;6.53;;;2.38;;
53263;SDS011;39153;52.680;6.172;2022-10-16T07:13:27;7.28;;;1.95;;
53263;SDS011;39153;52.680;6.172;2022-10-16T07:15:53;4.75;;;1.90;;
53263;SDS011;39153;52.680;6.172;2022-10-16T07:18:19;8.02;;;1.83;;
53263;SDS011;39153;52.680;6.172;2022-10-16T07:20:45;4.45;;;1.80;;
53263;SDS011;39153;52.680;6.172;2022-10-16T07:23:11;5.10;;;1.77;;
53263;SDS011;39153;52.680;6.172;2022-10-16T07:25:36;8.45;;;1.98;;
53263;SDS011;39153;52.680;6.172;2022-10-16T07:28:02;4.93;;;1.55;;
53263;SDS011;39153;52.680;6.172;2022-10-16T07:30:28;5.07;;;1.42;;
53263;SDS011;39153;52.680;6.172;2022-10-16T07:32:53;6.03;;;1.40;;
53263;SDS011;39153;52.680;6.172;2022-10-16T07:35:19;3.50;;;1.02;;
53263;SDS011;39153;52.680;6.172;2022-10-16T07:37:45;4.15;;;1.10;;
53263;SDS011;39153;52.680;6.172;2022-10-16T07:40:11;3.78;;;1.00;;
53263;SDS011;39153;52.680;6.172;2022-10-16T07:42:37;5.22;;;1.05;;
53263;SDS011;39153;52.680;6.172;2022-10-16T07:45:03;3.33;;;1.00;;
53263;SDS011;39153;52.680;6.172;2022-10-16T07:47:29;3.13;;;0.93;;
53263;SDS011;39153;52.680;6.172;2022-10-16T07:49:54;5.13;;;1.08;;
53263;SDS011;39153;52.680;6.172;2022-10-16T07:52:20;3.65;;;1.30;;
53263;SDS011;39153;52.680;6.172;2022-10-16T07:54:46;6.07;;;1.30;;
53263;SDS011;39153;52.680;6.172;2022-10-16T07:57:11;6.18;;;1.50;;
53263;SDS011;39153;52.680;6.172;2022-10-16T07:59:43;5.38;;;1.67;;
53263;SDS011;39153;52.680;6.172;2022-10-16T08:02:09;4.05;;;1.58;;
53263;SDS011;39153;52.680;6.172;2022-10-16T08:04:34;7.50;;;1.80;;
53263;SDS011;39153;52.680;6.172;2022-10-16T08:07:00;5.00;;;1.70;;
53263;SDS011;39153;52.680;6.172;2022-10-16T08:09:26;6.88;;;2.40;;
53263;SDS011;39153;52.680;6.172;2022-10-16T08:11:51;5.97;;;2.40;;
53263;SDS011;39153;52.680;6.172;2022-10-16T08:14:17;6.00;;;2.47;;
53263;SDS011;39153;52.680;6.172;2022-10-16T08:16:43;5.32;;;2.45;;
53263;SDS011;39153;52.680;6.172;2022-10-16T08:19:09;7.80;;;2.60;;
53263;SDS011;39153;52.680;6.172;2022-10-16T08:21:34;8.07;;;3.10;;
53263;SDS011;39153;52.680;6.172;2022-10-16T08:24:00;6.00;;;2.90;;
53263;SDS011;39153;52.680;6.172;2022-10-16T08:26:26;6.20;;;2.95;;
53263;SDS011;39153;52.680;6.172;2022-10-16T08:28:52;5.97;;;2.63;;
53263;SDS011;39153;52.680;6.172;2022-10-16T08:31:17;6.93;;;2.83;;
53263;SDS011;39153;52.680;6.172;2022-10-16T08:33:45;7.93;;;3.05;;
53263;SDS011;39153;52.680;6.172;2022-10-16T08:36:12;8.70;;;3.20;;
53263;SDS011;39153;52.680;6.172;2022-10-16T08:38:39;9.27;;;3.00;;
53263;SDS011;39153;52.680;6.172;2022-10-16T08:43:55;8.85;;;3.03;;
53263;SDS011;39153;52.680;6.172;2022-10-16T08:46:40;7.40;;;2.80;;
53263;SDS011;39153;52.680;6.172;2022-10-16T08:49:31;5.50;;;2.63;;
53263;SDS011;39153;52.680;6.172;2022-10-16T08:51:57;8.63;;;2.50;;
53263;SDS011;39153;52.680;6.172;2022-10-16T08:54:31;9.20;;;2.90;;
53263;SDS011;39153;52.680;6.172;2022-10-16T08:57:19;6.97;;;2.72;;
53263;SDS011;39153;52.680;6.172;2022-10-16T08:59:46;5.38;;;2.58;;
53263;SDS011;39153;52.680;6.172;2022-10-16T09:11:21;6.47;;;2.35;;
53263;SDS011;39153;52.680;6.172;2022-10-16T09:22:46;6.70;;;1.90;;
53263;SDS011;39153;52.680;6.172;2022-10-16T09:25:14;5.72;;;1.95;;
53263;SDS011;39153;52.680;6.172;2022-10-16T09:27:42;9.93;;;2.22;;
53263;SDS011;39153;52.680;6.172;2022-10-16T09:30:13;8.10;;;2.08;;
53263;SDS011;39153;52.680;6.172;2022-10-16T09:32:41;9.50;;;1.80;;
53263;SDS011;39153;52.680;6.172;2022-10-16T09:35:11;5.63;;;1.80;;
53263;SDS011;39153;52.680;6.172;2022-10-16T09:37:41;7.80;;;1.70;;
53263;SDS011;39153;52.680;6.172;2022-10-16T09:40:12;10.25;;;1.95;;
53263;SDS011;39153;52.680;6.172;2022-10-16T09:43:05;10.57;;;2.00;;
53263;SDS011;39153;52.680;6.172;2022-10-16T09:45:55;11.15;;;2.30;;
53263;SDS011;39153;52.680;6.172;2022-10-16T09:48:23;7.13;;;1.63;;
53263;SDS011;39153;52.680;6.172;2022-10-16T09:50:57;9.00;;;2.00;;
53263;SDS011;39153;52.680;6.172;2022-10-16T09:53:25;8.40;;;1.77;;
53263;SDS011;39153;52.680;6.172;2022-10-16T09:56:02;10.05;;;1.92;;
53263;SDS011;39153;52.680;6.172;2022-10-16T09:58:30;11.85;;;2.20;;
53263;SDS011;39153;52.680;6.172;2022-10-16T10:00:58;13.40;;;2.60;;
53263;SDS011;39153;52.680;6.172;2022-10-16T10:03:33;11.05;;;2.13;;
53263;SDS011;39153;52.680;6.172;2022-10-16T10:09:13;8.68;;;2.15;;
53263;SDS011;39153;52.680;6.172;2022-10-16T10:11:52;10.18;;;2.13;;
53263;SDS011;39153;52.680;6.172;2022-10-16T10:14:26;14.52;;;2.25;;
53263;SDS011;39153;52.680;6.172;2022-10-16T10:17:01;14.48;;;2.78;;
53263;SDS011;39153;52.680;6.172;2022-10-16T10:19:37;8.80;;;2.00;;
53263;SDS011;39153;52.680;6.172;2022-10-16T10:22:18;8.32;;;2.22;;
53263;SDS011;39153;52.680;6.172;2022-10-16T10:24:54;9.70;;;2.25;;
53263;SDS011;39153;52.680;6.172;2022-10-16T10:27:38;11.20;;;2.30;;
53263;SDS011;39153;52.680;6.172;2022-10-16T10:36:14;12.13;;;2.33;;
53263;SDS011;39153;52.680;6.172;2022-10-16T10:38:52;9.63;;;2.40;;
53263;SDS011;39153;52.680;6.172;2022-10-16T10:46:51;10.10;;;2.38;;
53263;SDS011;39153;52.680;6.172;2022-10-16T11:06:46;9.52;;;2.30;;
53263;SDS011;39153;52.680;6.172;2022-10-16T11:09:18;9.57;;;2.15;;
53263;SDS011;39153;52.680;6.172;2022-10-16T11:11:54;10.48;;;1.73;;
53263;SDS011;39153;52.680;6.172;2022-10-16T11:17:28;7.55;;;2.08;;
53263;SDS011;39153;52.680;6.172;2022-10-16T11:20:19;11.40;;;2.25;;
53263;SDS011;39153;52.680;6.172;2022-10-16T11:22:54;9.32;;;1.98;;
53263;SDS011;39153;52.680;6.172;2022-10-16T11:25:30;8.98;;;1.85;;
53263;SDS011;39153;52.680;6.172;2022-10-16T11:33:47;8.43;;;1.95;;
53263;SDS011;39153;52.680;6.172;2022-10-16T11:36:30;9.98;;;1.67;;
53263;SDS011;39153;52.680;6.172;2022-10-16T11:39:20;10.55;;;1.98;;
53263;SDS011;39153;52.680;6.172;2022-10-16T11:41:53;9.60;;;1.88;;
53263;SDS011;39153;52.680;6.172;2022-10-16T11:48:14;6.82;;;1.80;;
53263;SDS011;39153;52.680;6.172;2022-10-16T11:51:05;12.32;;;2.00;;
53263;SDS011;39153;52.680;6.172;2022-10-16T11:56:30;10.35;;;1.88;;
53263;SDS011;39153;52.680;6.172;2022-10-16T11:59:05;8.30;;;1.85;;
53263;SDS011;39153;52.680;6.172;2022-10-16T12:01:57;9.68;;;2.13;;
53263;SDS011;39153;52.680;6.172;2022-10-16T12:04:46;12.13;;;1.58;;
53263;SDS011;39153;52.680;6.172;2022-10-16T12:07:24;8.18;;;1.55;;
53263;SDS011;39153;52.680;6.172;2022-10-16T12:09:57;13.23;;;2.10;;
53263;SDS011;39153;52.680;6.172;2022-10-16T12:15:18;8.65;;;1.70;;
53263;SDS011;39153;52.680;6.172;2022-10-16T12:17:54;7.28;;;1.70;;
53263;SDS011;39153;52.680;6.172;2022-10-16T12:22:52;9.80;;;1.83;;
53263;SDS011;39153;52.680;6.172;2022-10-16T12:25:21;11.70;;;1.70;;
53263;SDS011;39153;52.680;6.172;2022-10-16T12:33:00;8.13;;;1.70;;
53263;SDS011;39153;52.680;6.172;2022-10-16T12:35:46;11.25;;;2.22;;
53263;SDS011;39153;52.680;6.172;2022-10-16T12:38:21;10.10;;;2.08;;
53263;SDS011;39153;52.680;6.172;2022-10-16T12:41:02;11.25;;;1.95;;
53263;SDS011;39153;52.680;6.172;2022-10-16T12:43:43;12.85;;;2.10;;
53263;SDS011;39153;52.680;6.172;2022-10-16T12:48:37;9.40;;;1.80;;
53263;SDS011;39153;52.680;6.172;2022-10-16T12:56:52;12.25;;;1.90;;
53263;SDS011;39153;52.680;6.172;2022-10-16T13:04:38;11.32;;;1.95;;
53263;SDS011;39153;52.680;6.172;2022-10-16T13:13:02;7.50;;;1.52;;
53263;SDS011;39153;52.680;6.172;2022-10-16T13:23:36;9.82;;;1.60;;
53263;SDS011;39153;52.680;6.172;2022-10-16T13:26:39;9.30;;;1.75;;
53263;SDS011;39153;52.680;6.172;2022-10-16T13:29:20;8.25;;;1.58;;
53263;SDS011;39153;52.680;6.172;2022-10-16T13:31:46;9.88;;;1.73;;
53263;SDS011;39153;52.680;6.172;2022-10-16T13:34:14;9.00;;;1.50;;
53263;SDS011;39153;52.680;6.172;2022-10-16T13:36:49;7.63;;;1.73;;
53263;SDS011;39153;52.680;6.172;2022-10-16T13:39:27;7.22;;;1.58;;
53263;SDS011;39153;52.680;6.172;2022-10-16T13:41:58;8.23;;;1.40;;
53263;SDS011;39153;52.680;6.172;2022-10-16T13:44:47;6.13;;;1.20;;
53263;SDS011;39153;52.680;6.172;2022-10-16T13:47:16;7.65;;;1.50;;
53263;SDS011;39153;52.680;6.172;2022-10-16T13:49:46;9.35;;;1.63;;
53263;SDS011;39153;52.680;6.172;2022-10-16T13:52:23;7.25;;;1.42;;
53263;SDS011;39153;52.680;6.172;2022-10-16T13:54:49;8.15;;;1.50;;
53263;SDS011;39153;52.680;6.172;2022-10-16T13:57:15;11.43;;;1.77;;
53263;SDS011;39153;52.680;6.172;2022-10-16T13:59:41;5.60;;;1.50;;
53263;SDS011;39153;52.680;6.172;2022-10-16T14:04:54;7.32;;;1.48;;
53263;SDS011;39153;52.680;6.172;2022-10-16T14:07:23;7.97;;;1.55;;
53263;SDS011;39153;52.680;6.172;2022-10-16T14:09:51;9.32;;;1.60;;
53263;SDS011;39153;52.680;6.172;2022-10-16T14:12:18;8.00;;;1.38;;
53263;SDS011;39153;52.680;6.172;2022-10-16T14:14:47;8.95;;;1.58;;
53263;SDS011;39153;52.680;6.172;2022-10-16T14:17:18;7.65;;;1.42;;
53263;SDS011;39153;52.680;6.172;2022-10-16T14:19:48;7.47;;;1.65;;
53263;SDS011;39153;52.680;6.172;2022-10-16T14:22:37;7.07;;;1.55;;
53263;SDS011;39153;52.680;6.172;2022-10-16T14:25:24;10.65;;;1.73;;
53263;SDS011;39153;52.680;6.172;2022-10-16T14:28:03;9.10;;;1.75;;
53263;SDS011;39153;52.680;6.172;2022-10-16T14:30:29;7.90;;;1.52;;
53263;SDS011;39153;52.680;6.172;2022-10-16T14:35:29;8.95;;;1.40;;
53263;SDS011;39153;52.680;6.172;2022-10-16T14:38:05;6.47;;;1.50;;
53263;SDS011;39153;52.680;6.172;2022-10-16T14:40:33;8.82;;;1.60;;
53263;SDS011;39153;52.680;6.172;2022-10-16T14:43:01;8.15;;;1.40;;
53263;SDS011;39153;52.680;6.172;2022-10-16T14:45:30;10.77;;;1.92;;
53263;SDS011;39153;52.680;6.172;2022-10-16T14:47:58;7.75;;;1.70;;
53263;SDS011;39153;52.680;6.172;2022-10-16T14:50:27;9.35;;;1.70;;
53263;SDS011;39153;52.680;6.172;2022-10-16T14:52:53;9.05;;;1.58;;
53263;SDS011;39153;52.680;6.172;2022-10-16T14:55:19;7.65;;;1.58;;
53263;SDS011;39153;52.680;6.172;2022-10-16T14:57:45;7.97;;;1.60;;
53263;SDS011;39153;52.680;6.172;2022-10-16T15:00:22;9.30;;;1.80;;
53263;SDS011;39153;52.680;6.172;2022-10-16T15:02:49;10.93;;;2.05;;
53263;SDS011;39153;52.680;6.172;2022-10-16T15:05:20;7.03;;;1.60;;
53263;SDS011;39153;52.680;6.172;2022-10-16T15:07:48;6.03;;;1.38;;
53263;SDS011;39153;52.680;6.172;2022-10-16T15:10:15;8.35;;;1.65;;
53263;SDS011;39153;52.680;6.172;2022-10-16T15:12:42;10.52;;;1.85;;
53263;SDS011;39153;52.680;6.172;2022-10-16T15:15:24;9.15;;;1.80;;
53263;SDS011;39153;52.680;6.172;2022-10-16T15:18:00;7.10;;;1.70;;
53263;SDS011;39153;52.680;6.172;2022-10-16T15:20:28;10.50;;;1.77;;
53263;SDS011;39153;52.680;6.172;2022-10-16T15:23:02;8.48;;;1.40;;
53263;SDS011;39153;52.680;6.172;2022-10-16T15:25:38;8.07;;;1.55;;
53263;SDS011;39153;52.680;6.172;2022-10-16T15:28:07;7.57;;;1.70;;
53263;SDS011;39153;52.680;6.172;2022-10-16T15:30:34;9.52;;;1.92;;
53263;SDS011;39153;52.680;6.172;2022-10-16T15:33:01;10.82;;;1.65;;
53263;SDS011;39153;52.680;6.172;2022-10-16T15:35:27;7.88;;;1.60;;
53263;SDS011;39153;52.680;6.172;2022-10-16T15:37:53;9.85;;;1.50;;
53263;SDS011;39153;52.680;6.172;2022-10-16T15:40:19;7.68;;;1.77;;
53263;SDS011;39153;52.680;6.172;2022-10-16T15:42:45;7.90;;;1.70;;
53263;SDS011;39153;52.680;6.172;2022-10-16T15:45:12;9.05;;;1.90;;
53263;SDS011;39153;52.680;6.172;2022-10-16T15:47:38;8.48;;;1.63;;
53263;SDS011;39153;52.680;6.172;2022-10-16T15:50:06;8.43;;;1.70;;
53263;SDS011;39153;52.680;6.172;2022-10-16T15:52:32;7.95;;;1.77;;
53263;SDS011;39153;52.680;6.172;2022-10-16T15:54:58;9.60;;;2.20;;
53263;SDS011;39153;52.680;6.172;2022-10-16T15:57:24;8.38;;;2.13;;
53263;SDS011;39153;52.680;6.172;2022-10-16T15:59:50;10.95;;;2.50;;
53263;SDS011;39153;52.680;6.172;2022-10-16T16:02:15;11.98;;;2.97;;
53263;SDS011;39153;52.680;6.172;2022-10-16T16:04:41;9.10;;;2.67;;
53263;SDS011;39153;52.680;6.172;2022-10-16T16:07:07;9.32;;;2.55;;
53263;SDS011;39153;52.680;6.172;2022-10-16T16:09:33;8.60;;;2.08;;
53263;SDS011;39153;52.680;6.172;2022-10-16T16:11:59;9.23;;;1.90;;
53263;SDS011;39153;52.680;6.172;2022-10-16T16:14:26;9.70;;;2.30;;
53263;SDS011;39153;52.680;6.172;2022-10-16T16:16:56;9.50;;;2.53;;
53263;SDS011;39153;52.680;6.172;2022-10-16T16:19:22;10.00;;;2.15;;
53263;SDS011;39153;52.680;6.172;2022-10-16T16:21:48;10.73;;;2.58;;
53263;SDS011;39153;52.680;6.172;2022-10-16T16:24:14;9.73;;;2.70;;
53263;SDS011;39153;52.680;6.172;2022-10-16T16:26:40;10.73;;;2.40;;
53263;SDS011;39153;52.680;6.172;2022-10-16T16:29:12;8.15;;;2.70;;
53263;SDS011;39153;52.680;6.172;2022-10-16T16:31:39;9.90;;;2.63;;
53263;SDS011;39153;52.680;6.172;2022-10-16T16:34:06;9.63;;;2.40;;
53263;SDS011;39153;52.680;6.172;2022-10-16T16:36:32;10.60;;;3.08;;
53263;SDS011;39153;52.680;6.172;2022-10-16T16:38:58;9.63;;;2.65;;
53263;SDS011;39153;52.680;6.172;2022-10-16T16:41:28;10.73;;;2.67;;
53263;SDS011;39153;52.680;6.172;2022-10-16T16:43:55;10.48;;;2.50;;
53263;SDS011;39153;52.680;6.172;2022-10-16T16:46:26;8.98;;;2.50;;
53263;SDS011;39153;52.680;6.172;2022-10-16T16:48:51;9.60;;;2.75;;
53263;SDS011;39153;52.680;6.172;2022-10-16T16:51:20;9.27;;;2.60;;
53263;SDS011;39153;52.680;6.172;2022-10-16T16:53:50;8.15;;;2.72;;
53263;SDS011;39153;52.680;6.172;2022-10-16T16:56:17;9.93;;;3.65;;
53263;SDS011;39153;52.680;6.172;2022-10-16T16:58:47;11.90;;;3.72;;
53263;SDS011;39153;52.680;6.172;2022-10-16T17:01:13;11.13;;;4.20;;
53263;SDS011;39153;52.680;6.172;2022-10-16T17:03:41;9.88;;;4.18;;
53263;SDS011;39153;52.680;6.172;2022-10-16T17:06:11;10.30;;;4.25;;
53263;SDS011;39153;52.680;6.172;2022-10-16T17:08:39;10.23;;;4.07;;
53263;SDS011;39153;52.680;6.172;2022-10-16T17:11:05;13.18;;;4.15;;